Time;durP1;ratioP1;P1;durP2;ratioP2;P2;SDS_P1;SDS_P2;PMS_P1;PMS_P2;Temp;Humidity;BMP_temperature;BMP_pressure;BME280_temperature;BME280_humidity;BME280_pressure;Samples;Min_cycle;Max_cycle;Signal;HPM_P1;HPM_P2
2023/09/28 00:00:37;;;;;;;12.50;10.00;;;;;;;14.34;91.54;97259.48;111705;1244;24191;-70
2023/09/28 00:03:25;;;;;;;;;;;;;;;14.32;91.74;97261.27;111735;1244;22555;-70
2023/09/28 00:05:54;;;;;;;13.80;10.40;;;;;;;14.30;91.82;97263.39;111715;1241;22505;-70
2023/09/28 00:08:23;;;;;;;13.70;9.40;;;;;;;14.30;92.02;97264.66;111727;1244;22512;-70
2023/09/28 00:10:53;;;;;;;14.50;9.50;;;;;;;14.37;92.12;97258.41;111706;1244;25355;-70
2023/09/28 00:13:23;;;;;;;13.00;9.60;;;;;;;14.41;91.93;97260.86;111668;1244;22518;-70
2023/09/28 00:15:52;;;;;;;14.80;9.80;;;;;;;14.42;91.97;97259.84;111750;1244;22524;-70
2023/09/28 00:18:23;;;;;;;13.40;9.30;;;;;;;14.46;92.09;97261.72;111773;1244;22524;-70
2023/09/28 00:20:52;;;;;;;12.70;9.70;;;;;;;14.51;92.05;97259.21;111700;1244;22481;-70
2023/09/28 00:23:21;;;;;;;11.50;8.80;;;;;;;14.57;91.93;97259.55;111675;1244;22708;-70
2023/09/28 00:25:53;;;;;;;12.00;8.60;;;;;;;14.59;91.53;97259.85;111791;1244;22618;-70
2023/09/28 00:28:22;;;;;;;11.60;8.70;;;;;;;14.62;91.34;97262.46;111727;1244;24148;-70
2023/09/28 00:30:52;;;;;;;13.80;9.30;;;;;;;14.60;91.12;97257.10;111724;1244;22520;-70
2023/09/28 00:33:21;;;;;;;13.20;9.40;;;;;;;14.57;91.10;97254.42;111711;1244;25461;-70
2023/09/28 00:35:51;;;;;;;13.00;10.10;;;;;;;14.49;91.31;97255.38;111705;1244;22505;-69
2023/09/28 00:38:19;;;;;;;;;;;;;;;14.42;91.39;97251.98;111751;1244;22542;-69
2023/09/28 00:40:48;;;;;;;12.50;9.90;;;;;;;14.37;91.62;97249.92;111697;1244;22514;-70
2023/09/28 00:43:27;;;;;;;12.80;9.40;;;;;;;14.33;91.66;97250.16;111725;1244;22543;-70
2023/09/28 00:45:56;;;;;;;14.50;10.10;;;;;;;14.32;91.82;97250.30;111741;1244;22508;-70
2023/09/28 00:48:27;;;;;;;11.90;8.70;;;;;;;14.32;91.85;97248.80;111748;1244;22520;-69
2023/09/28 00:50:59;;;;;;;12.60;9.20;;;;;;;14.34;91.95;97249.95;111748;1244;22530;-69
2023/09/28 00:53:29;;;;;;;13.70;8.80;;;;;;;14.41;91.95;97255.89;111710;1244;24459;-69
2023/09/28 00:55:59;;;;;;;13.80;9.00;;;;;;;14.44;91.84;97251.48;111720;1244;25398;-69
2023/09/28 00:58:29;;;;;;;12.20;9.10;;;;;;;14.48;91.85;97251.27;111771;1244;25279;-70
2023/09/28 01:01:00;;;;;;;;;;;;;;;14.48;91.62;97252.04;111744;1244;22553;-69
2023/09/28 01:03:29;;;;;;;12.30;8.70;;;;;;;14.44;91.56;97251.02;111716;1244;24255;-70
2023/09/28 01:05:58;;;;;;;;;;;;;;;14.45;91.57;97250.69;111743;1244;22632;-70
2023/09/28 01:08:27;;;;;;;12.70;8.90;;;;;;;14.46;91.58;97251.37;111748;1244;22515;-69
2023/09/28 01:10:59;;;;;;;12.20;8.60;;;;;;;14.54;91.59;97254.09;111713;1244;23324;-69
2023/09/28 01:13:29;;;;;;;12.60;8.60;;;;;;;14.60;91.35;97257.10;111715;1244;22513;-68
2023/09/28 01:15:58;;;;;;;11.30;8.60;;;;;;;14.66;91.19;97260.08;111752;1243;22495;-69
2023/09/28 01:18:27;;;;;;;11.80;8.00;;;;;;;14.70;90.87;97255.80;111734;1244;22522;-70
2023/09/28 01:21:01;;;;;;;11.60;8.60;;;;;;;14.70;90.65;97264.23;111699;1244;22515;-69
2023/09/28 01:23:31;;;;;;;10.40;9.00;;;;;;;14.66;90.44;97257.73;111737;1244;25454;-69
2023/09/28 01:26:02;;;;;;;10.90;8.40;;;;;;;14.63;90.42;97265.07;111748;1244;22531;-70
2023/09/28 01:28:30;;;;;;;12.00;8.30;;;;;;;14.63;90.42;97265.02;111742;1244;25235;-69
2023/09/28 01:31:00;;;;;;;11.00;8.80;;;;;;;14.69;90.44;97262.60;111727;1244;22521;-68
2023/09/28 01:33:30;;;;;;;11.40;8.00;;;;;;;14.81;90.28;97260.98;111721;1244;25350;-69
2023/09/28 01:35:58;;;;;;;13.90;8.30;;;;;;;14.91;89.92;97262.59;111730;1244;23165;-69
2023/09/28 01:38:34;;;;;;;11.60;8.10;;;;;;;14.96;89.62;97256.61;111749;1244;22492;-69
2023/09/28 01:41:04;;;;;;;13.70;8.00;;;;;;;15.02;89.28;97256.34;111718;1244;22542;-69
2023/09/28 01:43:33;;;;;;;11.90;7.60;;;;;;;15.09;89.06;97251.22;111730;1244;22593;-69
2023/09/28 01:46:01;;;;;;;13.20;8.00;;;;;;;15.15;88.63;97252.44;111727;1244;22502;-69
2023/09/28 01:48:29;;;;;;;10.20;7.70;;;;;;;15.21;88.35;97253.64;111709;1244;22509;-70
2023/09/28 01:50:58;;;;;;;14.80;8.30;;;;;;;15.24;88.05;97254.77;111539;1244;22511;-69
2023/09/28 01:53:27;;;;;;;12.70;7.50;;;;;;;15.21;87.72;97250.77;111685;1244;22559;-69
2023/09/28 01:55:57;;;;;;;10.80;7.40;;;;;;;15.20;87.55;97251.63;111749;1244;22534;-69
2023/09/28 01:58:26;;;;;;;10.80;7.70;;;;;;;15.21;87.39;97253.45;111764;1244;22538;-69
2023/09/28 02:00:55;;;;;;;12.30;8.00;;;;;;;15.17;87.17;97255.13;111716;1244;25370;-69
2023/09/28 02:03:23;;;;;;;9.80;7.30;;;;;;;15.14;87.16;97257.80;111728;1244;22466;-69
2023/09/28 02:05:53;;;;;;;9.90;6.70;;;;;;;15.16;87.09;97257.19;111735;1244;22504;-69
2023/09/28 02:08:21;;;;;;;13.70;8.00;;;;;;;15.15;86.97;97256.09;111754;1244;22545;-69
2023/09/28 02:10:49;;;;;;;14.80;7.80;;;;;;;15.14;86.85;97258.23;111726;1244;25365;-69
2023/09/28 02:13:17;;;;;;;10.00;7.40;;;;;;;15.10;86.80;97256.71;111731;1244;22544;-69
2023/09/28 02:15:48;;;;;;;11.20;7.90;;;;;;;15.11;86.78;97255.41;111719;1244;22621;-69
2023/09/28 02:18:16;;;;;;;11.70;7.80;;;;;;;15.13;86.75;97262.41;111770;1244;22517;-69
2023/09/28 02:20:44;;;;;;;12.10;7.20;;;;;;;15.17;86.82;97261.50;111724;1244;22508;-70
2023/09/28 02:23:13;;;;;;;10.00;7.60;;;;;;;15.20;86.69;97261.35;111701;1244;22502;-69
2023/09/28 02:25:41;;;;;;;9.70;7.90;;;;;;;15.23;86.52;97256.65;111766;1244;24195;-69
2023/09/28 02:28:11;;;;;;;11.20;7.90;;;;;;;15.28;86.30;97259.20;111743;1244;22607;-69
2023/09/28 02:30:39;;;;;;;12.00;7.90;;;;;;;15.34;86.20;97262.73;111734;1244;22512;-69
2023/09/28 02:33:09;;;;;;;9.40;7.40;;;;;;;15.37;85.94;97261.73;111736;1244;22523;-69
2023/09/28 02:35:36;;;;;;;;;;;;;;;15.32;85.75;97261.95;111812;1244;22606;-69
2023/09/28 02:38:05;;;;;;;11.00;7.80;;;;;;;15.26;85.60;97260.14;111750;1244;22989;-69
2023/09/28 02:40:36;;;;;;;9.50;7.20;;;;;;;15.21;85.69;97261.45;111735;1244;24287;-69
2023/09/28 02:43:04;;;;;;;11.40;8.20;;;;;;;15.19;85.80;97262.22;111732;1244;22526;-69
2023/09/28 02:45:33;;;;;;;11.40;7.30;;;;;;;15.22;85.91;97264.80;111740;1244;25331;-68
2023/09/28 02:48:01;;;;;;;13.00;7.30;;;;;;;15.28;85.71;97263.73;111742;1244;22502;-69
2023/09/28 02:50:31;;;;;;;9.90;7.20;;;;;;;15.33;85.45;97266.20;111742;1244;22511;-69
2023/09/28 02:52:58;;;;;;;;;;;;;;;15.31;85.19;97266.84;111703;1244;27146;-69
2023/09/28 02:55:27;;;;;;;9.80;7.40;;;;;;;15.33;85.08;97269.04;111758;1244;22505;-69
2023/09/28 02:57:56;;;;;;;11.10;7.60;;;;;;;15.36;85.03;97268.85;111755;1241;25153;-69
2023/09/28 03:00:27;;;;;;;10.90;7.50;;;;;;;15.37;84.87;97269.15;111726;1244;22689;-69
2023/09/28 03:02:57;;;;;;;10.70;6.70;;;;;;;15.41;84.82;97266.98;111767;1244;24354;-69
2023/09/28 03:05:26;;;;;;;9.20;7.10;;;;;;;15.41;84.47;97263.67;111728;1244;22525;-69
2023/09/28 03:07:55;;;;;;;12.90;7.40;;;;;;;15.43;84.33;97261.33;111729;1244;22558;-69
2023/09/28 03:10:23;;;;;;;10.00;7.30;;;;;;;15.40;84.11;97264.01;111750;1244;22553;-69
2023/09/28 03:12:52;;;;;;;11.40;7.00;;;;;;;15.33;84.00;97257.17;111734;1244;25225;-69
2023/09/28 03:15:20;;;;;;;10.20;7.20;;;;;;;15.29;84.05;97253.94;111744;1244;22508;-69
2023/09/28 03:17:49;;;;;;;12.30;7.20;;;;;;;15.29;84.07;97257.14;111773;1244;25299;-69
2023/09/28 03:20:18;;;;;;;9.60;6.80;;;;;;;15.29;84.00;97260.02;111759;1244;22525;-69
2023/09/28 03:22:47;;;;;;;;;;;;;;;15.24;83.98;97259.31;111767;1244;22518;-69
2023/09/28 03:25:17;;;;;;;10.10;6.90;;;;;;;15.17;83.95;97262.45;111802;1244;22508;-69
2023/09/28 03:27:47;;;;;;;11.20;7.40;;;;;;;15.09;83.99;97266.11;111745;1244;22685;-69
2023/09/28 03:30:15;;;;;;;;;;;;;;;15.00;84.03;97263.27;111754;1244;22466;-70
2023/09/28 03:32:44;;;;;;;10.90;7.00;;;;;;;14.88;84.12;97268.30;111770;1244;22488;-69
2023/09/28 03:35:12;;;;;;;;;;;;;;;14.79;84.28;97268.81;111796;1244;25438;-69
2023/09/28 03:37:41;;;;;;;11.70;6.90;;;;;;;14.74;84.39;97272.98;111761;1244;22508;-69
2023/09/28 03:40:10;;;;;;;8.80;7.10;;;;;;;14.71;84.49;97276.82;111718;1244;22505;-69
2023/09/28 03:42:40;;;;;;;9.10;7.30;;;;;;;14.69;84.63;97276.89;111734;1241;22528;-69
2023/09/28 03:45:10;;;;;;;8.80;7.90;;;;;;;14.66;84.75;97280.84;111815;1244;22514;-69
2023/09/28 03:47:39;;;;;;;8.90;7.00;;;;;;;14.66;85.00;97280.04;111753;1244;23055;-70
2023/09/28 03:50:11;;;;;;;10.80;7.20;;;;;;;14.64;85.00;97278.73;111753;1244;22504;-69
2023/09/28 03:52:41;;;;;;;12.20;7.60;;;;;;;14.63;85.08;97278.14;111738;1244;23677;-70
2023/09/28 03:55:12;;;;;;;9.80;6.50;;;;;;;14.61;85.06;97276.98;111773;1244;22496;-70
2023/09/28 03:57:42;;;;;;;9.20;7.40;;;;;;;14.61;85.15;97276.23;111777;1241;24450;-70
2023/09/28 04:00:14;;;;;;;12.00;7.10;;;;;;;14.63;85.12;97278.25;111753;1244;22567;-69
2023/09/28 04:02:45;;;;;;;10.20;6.90;;;;;;;14.63;85.04;97276.96;111761;1244;22518;-70
2023/09/28 04:05:13;;;;;;;11.40;7.20;;;;;;;14.68;85.13;97274.73;111763;1244;22518;-69
2023/09/28 04:07:41;;;;;;;11.10;7.50;;;;;;;14.72;85.08;97277.32;111760;1244;22530;-69
2023/09/28 04:10:11;;;;;;;10.60;7.40;;;;;;;14.73;85.01;97277.20;111765;1244;22527;-68
2023/09/28 04:12:40;;;;;;;13.10;7.30;;;;;;;14.75;85.12;97274.28;111759;1244;22515;-69
2023/09/28 04:15:09;;;;;;;13.60;8.40;;;;;;;14.79;85.06;97275.75;111763;1244;22488;-69
2023/09/28 04:17:38;;;;;;;11.60;7.70;;;;;;;14.79;85.03;97273.89;111773;1244;22544;-69
2023/09/28 04:20:10;;;;;;;9.10;6.60;;;;;;;14.76;84.93;97272.83;111765;1244;22503;-70
2023/09/28 04:22:39;;;;;;;10.70;7.50;;;;;;;14.75;84.95;97271.58;111767;1244;23821;-69
2023/09/28 04:25:11;;;;;;;9.90;7.10;;;;;;;14.74;84.97;97273.23;111757;1244;22552;-69
2023/09/28 04:27:39;;;;;;;12.00;7.60;;;;;;;14.70;84.80;97272.23;111786;1244;22500;-70
2023/09/28 04:30:10;;;;;;;7.80;5.90;;;;;;;14.71;84.89;97274.25;111744;1244;23910;-69
2023/09/28 04:32:39;;;;;;;9.60;6.80;;;;;;;14.73;85.01;97273.36;111781;1244;22505;-69
2023/09/28 04:35:10;;;;;;;9.10;6.80;;;;;;;14.72;84.94;97274.87;111777;1244;22488;-69
2023/09/28 04:37:39;;;;;;;10.00;7.20;;;;;;;14.75;84.88;97279.31;111814;1244;22524;-70
2023/09/28 04:40:10;;;;;;;10.90;6.80;;;;;;;14.75;84.82;97275.79;111721;1237;22508;-70
2023/09/28 04:42:39;;;;;;;11.30;7.60;;;;;;;14.75;84.82;97274.61;111752;1244;22491;-69
2023/09/28 04:45:10;;;;;;;10.60;7.60;;;;;;;14.76;84.81;97274.54;111772;1244;22538;-70
2023/09/28 04:47:38;;;;;;;9.30;7.10;;;;;;;14.75;84.73;97280.21;111750;1244;25303;-69
2023/09/28 04:50:08;;;;;;;11.10;7.70;;;;;;;14.73;84.73;97284.46;111753;1244;22519;-69
2023/09/28 04:52:37;;;;;;;10.70;7.50;;;;;;;14.77;84.97;97282.97;111713;1242;22577;-69
2023/09/28 04:55:08;;;;;;;11.50;7.40;;;;;;;14.89;85.04;97277.09;111751;1244;22512;-69
2023/09/28 04:57:39;;;;;;;11.80;7.00;;;;;;;15.02;84.97;97281.28;111798;1244;22508;-69
2023/09/28 05:00:16;;;;;;;9.40;6.80;;;;;;;15.15;84.84;97276.60;111812;1244;22508;-70
2023/09/28 05:02:47;;;;;;;9.10;7.00;;;;;;;15.28;84.76;97279.17;111746;1244;22548;-69
2023/09/28 05:05:17;;;;;;;11.90;7.50;;;;;;;15.42;84.72;97283.42;111784;1244;22516;-69
2023/09/28 05:07:48;;;;;;;11.20;7.20;;;;;;;15.59;84.51;97287.92;111783;1244;22515;-69
2023/09/28 05:10:17;;;;;;;10.50;6.60;;;;;;;15.74;84.16;97291.79;111770;1244;22522;-69
2023/09/28 05:12:47;;;;;;;9.10;7.00;;;;;;;15.85;83.82;97293.25;111751;1244;28274;-69
2023/09/28 05:15:18;;;;;;;11.70;6.90;;;;;;;15.98;83.68;97293.55;111796;1244;22505;-70
2023/09/28 05:17:48;;;;;;;8.40;6.70;;;;;;;16.23;83.68;97295.28;111759;1244;24192;-69
2023/09/28 05:20:16;;;;;;;9.60;6.90;;;;;;;16.41;83.15;97297.76;111735;1244;22511;-69
2023/09/28 05:22:45;;;;;;;10.50;6.30;;;;;;;16.56;82.51;97300.81;111758;1244;24222;-70
2023/09/28 05:25:14;;;;;;;10.00;6.40;;;;;;;16.69;82.09;97305.50;111757;1244;23237;-69
2023/09/28 05:27:42;;;;;;;;;;;;;;;16.82;81.66;97303.73;111758;1244;22483;-69
2023/09/28 05:30:13;;;;;;;9.60;6.50;;;;;;;16.93;81.04;97307.40;111736;1244;22518;-69
2023/09/28 05:32:42;;;;;;;8.80;5.90;;;;;;;17.08;80.84;97307.38;111752;1244;26185;-69
2023/09/28 05:35:11;;;;;;;10.30;6.30;;;;;;;17.30;80.37;97306.94;111780;1244;22505;-69
2023/09/28 05:37:40;;;;;;;9.50;6.20;;;;;;;17.41;79.73;97308.31;111776;1244;24242;-69
2023/09/28 05:40:12;;;;;;;9.90;6.30;;;;;;;17.47;79.20;97310.48;111788;1244;23265;-70
2023/09/28 05:42:41;;;;;;;8.40;5.90;;;;;;;17.61;78.91;97313.63;111773;1244;22498;-70
2023/09/28 05:45:10;;;;;;;8.80;5.80;;;;;;;17.74;78.18;97316.48;111749;1244;22487;-69
2023/09/28 05:47:39;;;;;;;8.80;5.90;;;;;;;17.60;77.13;97313.18;111788;1229;22560;-69
2023/09/28 05:50:11;;;;;;;10.50;6.30;;;;;;;17.33;77.11;97315.04;111743;1244;22583;-69
2023/09/28 05:52:41;;;;;;;7.20;6.30;;;;;;;17.32;77.67;97318.56;111739;1244;25247;-69
2023/09/28 05:55:10;;;;;;;9.80;5.80;;;;;;;17.45;77.63;97325.92;111823;1244;22516;-69
2023/09/28 05:57:39;;;;;;;9.00;5.80;;;;;;;17.61;77.28;97323.56;111814;1244;22601;-69
2023/09/28 06:00:10;;;;;;;7.90;5.60;;;;;;;17.71;77.21;97323.05;111759;1244;22563;-69
2023/09/28 06:02:38;;;;;;;7.20;6.50;;;;;;;17.82;76.79;97320.91;111770;1244;22618;-69
2023/09/28 06:05:09;;;;;;;7.40;5.80;;;;;;;17.86;76.55;97322.10;111760;1244;22551;-69
2023/09/28 06:07:38;;;;;;;7.50;5.90;;;;;;;17.87;75.92;97319.83;111788;1240;22549;-69
2023/09/28 06:10:08;;;;;;;13.80;6.30;;;;;;;17.84;75.87;97318.14;111794;1244;22519;-68
2023/09/28 06:12:37;;;;;;;10.00;5.90;;;;;;;17.89;75.33;97318.72;111806;1244;22504;-68
2023/09/28 06:15:09;;;;;;;7.10;5.90;;;;;;;17.97;75.60;97326.42;111769;1243;22505;-69
2023/09/28 06:17:37;;;;;;;7.50;5.50;;;;;;;18.44;76.18;97323.33;111826;1244;22519;-69
2023/09/28 06:20:08;;;;;;;8.90;5.90;;;;;;;18.71;75.14;97325.16;111771;1244;24850;-69
2023/09/28 06:22:36;;;;;;;9.00;6.20;;;;;;;19.17;74.93;97329.30;111788;1244;23994;-70
2023/09/28 06:25:08;;;;;;;10.20;6.10;;;;;;;19.63;74.84;97321.67;111750;1244;25219;-70
2023/09/28 06:27:37;;;;;;;9.80;5.80;;;;;;;20.39;74.76;97323.38;111808;1244;22532;-69
2023/09/28 06:30:11;;;;;;;7.20;5.70;;;;;;;21.15;73.86;97320.88;111769;1244;22485;-70
2023/09/28 06:32:40;;;;;;;10.00;5.70;;;;;;;21.87;73.14;97320.44;111783;1244;25166;-69
2023/09/28 06:35:09;;;;;;;10.30;5.90;;;;;;;22.30;71.45;97316.96;111750;1244;22506;-70
2023/09/28 06:37:38;;;;;;;7.80;5.20;;;;;;;22.75;71.12;97316.77;111810;1244;23203;-69
2023/09/28 06:40:10;;;;;;;8.30;5.70;;;;;;;23.30;70.48;97317.00;111611;1244;24768;-70
2023/09/28 06:42:39;;;;;;;7.40;5.40;;;;;;;23.36;67.80;97311.92;112856;1242;22509;-70
2023/09/28 06:45:09;;;;;;;9.50;5.10;;;;;;;23.48;67.83;97314.51;111762;1244;22533;-69
2023/09/28 06:47:38;;;;;;;7.50;5.20;;;;;;;23.67;66.83;97313.67;111821;1240;23986;-70
2023/09/28 06:50:10;;;;;;;9.10;5.50;;;;;;;23.72;66.27;97312.46;111750;1244;23530;-69
2023/09/28 06:52:43;;;;;;;7.60;5.20;;;;;;;23.87;65.79;97315.95;111741;1244;23282;-69
2023/09/28 06:55:11;;;;;;;9.90;5.30;;;;;;;24.04;65.01;97318.23;111431;1241;22501;-70
2023/09/28 06:57:40;;;;;;;;;;;;;;;24.15;64.54;97319.54;111586;1244;22900;-69
2023/09/28 07:00:16;;;;;;;7.40;5.20;;;;;;;24.21;63.22;97322.11;111630;1244;25426;-68
2023/09/28 07:02:48;;;;;;;7.70;5.40;;;;;;;23.81;62.01;97320.98;111695;1244;23319;-69
2023/09/28 07:05:18;;;;;;;6.90;5.60;;;;;;;23.41;61.85;97328.27;112549;1244;22556;-69
2023/09/28 07:07:48;;;;;;;13.40;5.70;;;;;;;22.84;61.61;97322.99;111734;1244;22515;-69
2023/09/28 07:10:18;;;;;;;8.80;5.70;;;;;;;22.59;62.40;97321.66;111752;1244;22485;-69
2023/09/28 07:12:46;;;;;;;;;;;;;;;22.64;62.83;97324.44;111750;1244;22498;-69
2023/09/28 07:15:14;;;;;;;7.00;5.50;;;;;;;22.55;62.13;97314.65;111758;1244;22518;-69
2023/09/28 07:17:43;;;;;;;8.30;5.80;;;;;;;22.27;62.32;97316.38;111781;1244;24297;-69
2023/09/28 07:20:14;;;;;;;9.20;6.00;;;;;;;22.02;62.21;97322.02;111765;1244;22506;-68
2023/09/28 07:22:42;;;;;;;7.30;5.40;;;;;;;21.89;62.79;97317.81;111806;1244;22511;-69
2023/09/28 07:25:11;;;;;;;10.40;5.80;;;;;;;21.80;62.81;97317.28;111757;1244;22501;-69
2023/09/28 07:27:42;;;;;;;7.30;5.90;;;;;;;21.77;63.33;97318.93;111786;1244;22489;-69
2023/09/28 07:30:12;;;;;;;6.90;5.10;;;;;;;21.79;63.91;97315.86;111800;1244;22495;-69
2023/09/28 07:32:41;;;;;;;6.80;5.10;;;;;;;21.97;64.03;97314.28;111794;1244;23243;-69
2023/09/28 07:35:09;;;;;;;7.10;5.00;;;;;;;22.02;63.85;97317.38;111789;1244;22626;-70
2023/09/28 07:37:39;;;;;;;7.80;5.80;;;;;;;21.94;63.88;97311.03;111790;1244;22503;-69
2023/09/28 07:40:12;;;;;;;9.60;5.60;;;;;;;21.88;64.18;97312.77;111596;1244;215640;-69
2023/09/28 07:42:41;;;;;;;8.70;5.80;;;;;;;22.05;64.68;97309.57;111518;1244;22770;-69
2023/09/28 07:45:09;;;;;;;;;;;;;;;22.23;64.69;97312.92;111781;1244;22573;-69
2023/09/28 07:47:38;;;;;;;9.30;5.90;;;;;;;22.30;64.72;97311.86;111805;1244;22496;-70
2023/09/28 07:50:10;;;;;;;7.90;5.70;;;;;;;22.31;64.86;97309.65;111738;1244;22513;-70
2023/09/28 07:52:39;;;;;;;7.90;4.90;;;;;;;22.34;65.19;97309.77;111779;1244;22550;-70
2023/09/28 07:55:09;;;;;;;7.00;5.00;;;;;;;22.50;65.22;97315.67;111826;1244;21781;-69
2023/09/28 07:57:41;;;;;;;10.10;5.70;;;;;;;22.54;65.03;97313.25;111844;1241;25400;-70
2023/09/28 08:00:14;;;;;;;7.20;5.10;;;;;;;22.73;65.35;97311.60;111829;1244;25352;-70
2023/09/28 08:02:42;;;;;;;10.10;5.70;;;;;;;22.94;65.67;97307.77;111822;1244;22516;-70
2023/09/28 08:05:12;;;;;;;10.70;6.20;;;;;;;23.14;65.64;97316.93;111798;1244;24970;-70
2023/09/28 08:07:41;;;;;;;;;;;;;;;23.30;65.64;97315.62;111835;1244;22486;-70
2023/09/28 08:10:10;;;;;;;11.60;5.70;;;;;;;23.42;65.07;97320.20;111813;1244;22509;-70
2023/09/28 08:12:39;;;;;;;;;;;;;;;23.49;64.99;97318.63;111794;1244;32430;-70
2023/09/28 08:15:09;;;;;;;9.40;5.90;;;;;;;23.62;64.71;97316.16;111807;1244;22492;-70
2023/09/28 08:17:39;;;;;;;9.90;5.90;;;;;;;23.70;64.62;97317.45;111865;1244;22565;-70
2023/09/28 08:20:11;;;;;;;7.30;5.40;;;;;;;23.80;64.16;97319.27;111855;1244;22509;-70
2023/09/28 08:22:39;;;;;;;8.60;5.90;;;;;;;23.78;63.77;97316.86;111887;1244;22508;-70
2023/09/28 08:25:09;;;;;;;8.40;5.60;;;;;;;23.75;63.46;97316.64;111837;1244;22513;-70
2023/09/28 08:27:38;;;;;;;7.50;5.60;;;;;;;23.71;63.00;97315.06;111895;1244;22518;-70
2023/09/28 08:30:10;;;;;;;8.70;6.00;;;;;;;23.59;63.23;97314.59;111798;1242;22526;-70
2023/09/28 08:32:38;;;;;;;7.60;5.00;;;;;;;23.58;63.41;97318.98;111857;1244;25471;-70
2023/09/28 08:35:11;;;;;;;6.90;5.30;;;;;;;23.55;63.35;97316.86;111766;1244;24119;-70
2023/09/28 08:37:40;;;;;;;11.10;5.30;;;;;;;23.69;63.35;97320.73;111811;1244;22478;-72
2023/09/28 08:40:10;;;;;;;9.30;5.40;;;;;;;23.63;62.23;97314.80;111747;1244;22455;-71
2023/09/28 08:42:43;;;;;;;12.50;5.60;;;;;;;23.55;62.13;97313.94;111795;1244;22499;-72
2023/09/28 08:45:14;;;;;;;6.40;5.00;;;;;;;23.51;62.46;97318.83;111685;1244;22488;-71
2023/09/28 08:47:51;;;;;;;8.10;5.80;;;;;;;23.56;62.26;97315.52;111633;1243;25219;-72
2023/09/28 08:50:23;;;;;;;8.70;5.10;;;;;;;23.66;61.93;97315.58;111916;1244;22533;-71
2023/09/28 08:52:54;;;;;;;11.90;5.40;;;;;;;23.76;61.81;97317.44;111803;1244;25279;-72
2023/09/28 08:55:27;;;;;;;9.00;5.40;;;;;;;23.87;62.06;97317.66;111920;1244;22498;-72
2023/09/28 08:57:57;;;;;;;9.20;5.10;;;;;;;23.94;61.21;97315.54;111871;1244;22528;-72
2023/09/28 09:00:26;;;;;;;7.30;5.10;;;;;;;23.95;61.64;97318.23;111801;1244;22493;-72
2023/09/28 09:02:58;;;;;;;7.10;4.90;;;;;;;24.08;61.29;97313.71;111776;1244;24073;-72
2023/09/28 09:05:29;;;;;;;7.10;5.00;;;;;;;24.15;61.06;97317.21;111842;1244;22856;-71
2023/09/28 09:07:59;;;;;;;9.40;5.50;;;;;;;24.21;61.22;97313.42;111660;1244;22506;-72
2023/09/28 09:10:28;;;;;;;9.20;5.50;;;;;;;24.33;60.88;97311.31;111642;1244;22512;-72
2023/09/28 09:12:57;;;;;;;10.10;6.20;;;;;;;24.30;60.56;97310.33;111738;1244;23458;-72
2023/09/28 09:15:28;;;;;;;7.80;5.80;;;;;;;24.29;61.15;97313.40;111772;1244;22718;-72
2023/09/28 09:18:00;;;;;;;7.30;5.20;;;;;;;24.47;61.06;97312.98;111798;1244;22519;-71
2023/09/28 09:20:29;;;;;;;8.20;5.10;;;;;;;24.48;60.70;97314.46;111826;1244;22485;-71
2023/09/28 09:23:11;;;;;;;9.20;5.70;;;;;;;24.59;61.54;97310.17;111622;1244;29906;-72
2023/09/28 09:25:43;;;;;;;6.30;5.30;;;;;;;24.74;61.77;97307.56;111746;1244;22501;-72
2023/09/28 09:28:12;;;;;;;9.70;5.60;;;;;;;24.80;61.71;97302.98;111852;1244;23054;-71
2023/09/28 09:30:41;;;;;;;9.60;5.90;;;;;;;24.85;61.44;97300.23;111798;1244;22509;-72
2023/09/28 09:33:09;;;;;;;11.10;5.80;;;;;;;24.86;61.35;97299.86;111829;1244;25414;-72
2023/09/28 09:35:38;;;;;;;9.10;5.50;;;;;;;24.92;61.44;97292.46;111810;1244;22501;-72
2023/09/28 09:38:07;;;;;;;10.50;5.80;;;;;;;24.98;61.17;97296.24;111799;1244;24895;-72
2023/09/28 09:40:35;;;;;;;12.00;5.50;;;;;;;24.87;59.93;97298.24;111810;1244;22553;-72
2023/09/28 09:43:08;;;;;;;8.60;5.60;;;;;;;24.75;59.49;97297.83;111791;1244;22486;-72
2023/09/28 09:45:38;;;;;;;11.70;5.60;;;;;;;24.63;58.75;97296.34;111787;1244;22522;-72
2023/09/28 09:48:09;;;;;;;;;;;;;;;24.60;59.41;97296.40;111786;1244;22484;-72
2023/09/28 09:50:39;;;;;;;10.90;5.90;;;;;;;24.55;59.19;97295.52;111802;1244;24339;-72
2023/09/28 09:53:07;;;;;;;;;;;;;;;24.58;60.31;97293.87;111765;1244;22514;-72
2023/09/28 09:55:40;;;;;;;9.90;5.30;;;;;;;24.63;59.51;97293.38;111830;1244;22520;-72
2023/09/28 09:58:13;;;;;;;8.60;4.90;;;;;;;24.64;58.75;97294.70;111849;1244;22505;-72
2023/09/28 10:00:44;;;;;;;7.50;4.50;;;;;;;24.53;58.20;97287.89;111818;1244;22498;-72
2023/09/28 10:03:13;;;;;;;7.70;5.10;;;;;;;24.44;57.70;97286.27;111776;1244;22509;-72
2023/09/28 10:05:43;;;;;;;7.60;5.30;;;;;;;24.43;59.04;97289.89;111804;1244;22552;-72
2023/09/28 10:08:15;;;;;;;9.50;5.00;;;;;;;24.56;59.42;97287.88;111789;1244;22531;-72
2023/09/28 10:10:48;;;;;;;10.80;4.80;;;;;;;24.65;59.20;97290.95;111809;1244;24374;-72
2023/09/28 10:13:17;;;;;;;8.10;5.10;;;;;;;24.73;58.85;97286.39;111762;1244;22503;-71
2023/09/28 10:15:46;;;;;;;7.80;5.40;;;;;;;24.82;59.30;97283.27;111831;1244;25324;-72
2023/09/28 10:18:15;;;;;;;6.90;4.70;;;;;;;24.87;58.84;97282.67;111853;1244;23338;-72
2023/09/28 10:20:43;;;;;;;9.00;5.10;;;;;;;24.95;59.10;97284.23;111862;1244;22504;-72
2023/09/28 10:23:23;;;;;;;7.60;4.70;;;;;;;24.97;58.22;97281.64;111827;1244;22548;-72
2023/09/28 10:26:12;;;;;;;10.80;4.50;;;;;;;24.95;57.80;97280.68;111911;1244;23676;-72
2023/09/28 10:29:02;;;;;;;8.50;4.80;;;;;;;24.86;57.26;97277.07;111805;1244;22500;-72
2023/09/28 10:31:31;;;;;;;7.80;4.50;;;;;;;24.77;56.69;97276.65;111831;1244;22501;-72
2023/09/28 10:34:01;;;;;;;6.10;4.80;;;;;;;24.63;56.52;97274.32;111839;1244;22532;-72
2023/09/28 10:36:30;;;;;;;8.60;5.00;;;;;;;24.51;56.77;97274.83;111810;1244;22580;-72
2023/09/28 10:39:11;;;;;;;8.60;5.10;;;;;;;24.53;57.26;97273.72;111833;1244;22518;-72
2023/09/28 10:41:43;;;;;;;8.20;4.70;;;;;;;24.67;58.13;97272.80;111823;1244;22508;-72
2023/09/28 10:44:16;;;;;;;7.00;5.10;;;;;;;24.72;57.73;97275.14;111823;1244;25369;-72
2023/09/28 10:46:47;;;;;;;8.20;5.20;;;;;;;24.74;57.38;97273.79;111882;1244;25243;-71
2023/09/28 10:49:22;;;;;;;6.70;4.70;;;;;;;24.75;58.34;97269.39;111879;1244;23172;-72
2023/09/28 10:51:52;;;;;;;9.80;4.90;;;;;;;24.82;58.50;97270.10;111839;1244;25327;-72
2023/09/28 10:54:21;;;;;;;9.60;4.20;;;;;;;24.86;58.49;97267.31;111757;1244;22495;-72
2023/09/28 10:56:49;;;;;;;10.00;4.90;;;;;;;24.89;58.70;97266.20;111788;1244;22506;-72
2023/09/28 10:59:19;;;;;;;10.70;5.30;;;;;;;24.93;58.91;97261.95;111754;1244;22515;-72
2023/09/28 11:01:49;;;;;;;6.80;4.90;;;;;;;24.95;59.11;97261.38;111753;1244;22527;-72
2023/09/28 11:04:18;;;;;;;7.40;5.30;;;;;;;24.99;58.86;97262.91;111770;1244;22523;-72
2023/09/28 11:06:48;;;;;;;8.40;4.80;;;;;;;25.01;58.78;97262.36;111807;1244;23007;-71
2023/09/28 11:09:19;;;;;;;9.90;5.00;;;;;;;24.99;57.80;97255.49;111796;1244;22514;-72
2023/09/28 11:11:49;;;;;;;12.10;4.70;;;;;;;24.90;57.82;97250.95;111816;1244;25429;-72
2023/09/28 11:14:21;;;;;;;7.60;4.80;;;;;;;24.86;57.42;97250.11;111729;1244;25230;-71
2023/09/28 11:16:58;;;;;;;7.20;4.20;;;;;;;24.91;58.14;97249.41;111780;1244;22511;-72
2023/09/28 11:19:28;;;;;;;8.60;4.80;;;;;;;24.96;58.30;97250.00;111804;1244;22499;-71
2023/09/28 11:21:57;;;;;;;8.70;4.70;;;;;;;25.00;58.26;97245.20;111780;1244;22508;-72
2023/09/28 11:24:26;;;;;;;6.90;4.50;;;;;;;25.06;58.59;97242.18;111806;1244;22489;-72
2023/09/28 11:26:56;;;;;;;6.60;4.90;;;;;;;25.12;58.90;97242.85;111752;1244;23806;-71
2023/09/28 11:29:27;;;;;;;6.30;4.60;;;;;;;25.18;58.42;97240.15;111813;1244;22516;-72
2023/09/28 11:31:56;;;;;;;7.60;4.60;;;;;;;25.20;58.06;97234.33;111749;1244;25505;-71
2023/09/28 11:34:32;;;;;;;14.20;5.20;;;;;;;25.24;58.31;97234.70;111749;1244;22522;-71
2023/09/28 11:37:01;;;;;;;8.90;5.10;;;;;;;25.22;56.91;97235.53;111774;1244;22922;-71